createdAt,value
2022-12-06T00:00:32.900Z,26.77
2022-12-06T00:01:32.907Z,26.75
2022-12-06T00:02:33.035Z,26.72
2022-12-06T00:03:32.952Z,26.69
2022-12-06T00:04:32.899Z,26.72
2022-12-06T00:05:32.906Z,26.76
2022-12-06T00:06:32.901Z,26.76
2022-12-06T00:07:32.941Z,26.72
2022-12-06T00:08:32.898Z,26.69
2022-12-06T00:09:32.902Z,26.77
2022-12-06T00:10:32.897Z,26.73
2022-12-06T00:11:32.912Z,26.77
2022-12-06T00:12:32.897Z,26.75
2022-12-06T00:13:32.903Z,26.70
2022-12-06T00:14:32.895Z,26.77
2022-12-06T00:15:32.902Z,26.85
2022-12-06T00:16:32.966Z,26.69
2022-12-06T00:17:32.903Z,26.76
2022-12-06T00:18:32.918Z,26.73
2022-12-06T00:19:32.901Z,26.80
2022-12-06T00:20:32.895Z,26.66
2022-12-06T00:21:32.912Z,26.75
2022-12-06T00:22:32.901Z,26.70
2022-12-06T00:23:32.900Z,26.81
2022-12-06T00:24:32.905Z,26.66
2022-12-06T00:25:32.913Z,26.69
2022-12-06T00:26:32.893Z,26.69
2022-12-06T00:27:32.899Z,26.75
2022-12-06T00:28:32.892Z,26.77
2022-12-06T00:29:32.897Z,26.75
2022-12-06T00:30:32.892Z,26.70
2022-12-06T00:31:32.946Z,26.77
2022-12-06T00:32:32.891Z,26.76
2022-12-06T00:33:32.898Z,26.69
2022-12-06T00:34:32.913Z,26.75
2022-12-06T00:35:32.896Z,26.70
2022-12-06T00:36:32.895Z,26.69
2022-12-06T00:37:32.897Z,26.75
2022-12-06T00:38:32.890Z,26.70
2022-12-06T00:39:32.898Z,26.69
2022-12-06T00:40:32.898Z,26.75
2022-12-06T00:41:32.895Z,26.72
2022-12-06T00:42:32.887Z,26.75
2022-12-06T00:43:32.896Z,26.70
2022-12-06T00:44:32.887Z,26.75
2022-12-06T00:45:32.922Z,26.70
2022-12-06T00:46:32.974Z,26.75
2022-12-06T00:47:32.895Z,26.77
2022-12-06T00:48:32.888Z,26.69
2022-12-06T00:49:32.894Z,26.82
2022-12-06T00:50:32.907Z,26.76
2022-12-06T00:51:32.893Z,26.75
2022-12-06T00:52:32.888Z,26.73
2022-12-06T00:53:32.892Z,26.76
2022-12-06T00:54:32.885Z,26.70
2022-12-06T00:55:32.889Z,26.76
2022-12-06T00:56:32.884Z,26.80
2022-12-06T00:57:32.890Z,26.73
2022-12-06T00:58:32.884Z,26.81
2022-12-06T00:59:32.890Z,26.77
2022-12-06T01:00:32.881Z,26.73
2022-12-06T01:01:33.058Z,26.73
2022-12-06T01:02:32.883Z,26.73
2022-12-06T01:03:35.232Z,26.80
2022-12-06T01:04:32.883Z,26.73
2022-12-06T01:05:32.889Z,26.70
2022-12-06T01:06:32.902Z,26.69
2022-12-06T01:07:32.906Z,26.75
2022-12-06T01:08:32.879Z,26.72
2022-12-06T01:09:32.887Z,26.70
2022-12-06T01:10:32.879Z,26.75
2022-12-06T01:11:32.885Z,26.75
2022-12-06T01:12:32.878Z,26.73
2022-12-06T01:13:32.886Z,26.76
2022-12-06T01:14:32.879Z,26.76
2022-12-06T01:15:32.884Z,26.76
2022-12-06T01:16:33.009Z,26.75
2022-12-06T01:17:32.895Z,26.76
2022-12-06T01:18:32.877Z,26.72
2022-12-06T01:19:32.883Z,26.70
2022-12-06T01:20:32.878Z,26.73
2022-12-06T01:21:32.883Z,26.75
2022-12-06T01:22:32.903Z,26.70
2022-12-06T01:23:32.881Z,26.76
2022-12-06T01:24:32.876Z,26.72
2022-12-06T01:25:35.858Z,26.72
2022-12-06T01:26:32.883Z,26.72
2022-12-06T01:27:32.880Z,26.73
2022-12-06T01:28:32.873Z,26.75
2022-12-06T01:29:32.880Z,26.73
2022-12-06T01:30:32.943Z,26.72
2022-12-06T01:31:38.169Z,26.70
2022-12-06T01:32:32.873Z,26.72
2022-12-06T01:33:32.882Z,26.70
2022-12-06T01:34:32.871Z,26.62
2022-12-06T01:35:32.882Z,26.72
2022-12-06T01:36:32.873Z,26.70
2022-12-06T01:37:32.878Z,26.72
2022-12-06T01:38:32.899Z,26.75
2022-12-06T01:39:32.877Z,26.70
2022-12-06T01:40:32.871Z,26.70
2022-12-06T01:41:32.878Z,26.72
2022-12-06T01:42:32.872Z,26.72
2022-12-06T01:43:32.877Z,26.73
2022-12-06T01:44:32.870Z,26.70
2022-12-06T01:45:32.877Z,26.73
2022-12-06T01:46:32.927Z,26.80
2022-12-06T01:47:32.877Z,26.70
2022-12-06T01:48:32.868Z,26.72
2022-12-06T01:49:32.875Z,26.70
2022-12-06T01:50:32.868Z,26.73
2022-12-06T01:51:32.874Z,26.72
2022-12-06T01:52:32.867Z,26.72
2022-12-06T01:53:32.873Z,26.73
2022-12-06T01:54:32.891Z,26.77
2022-12-06T01:55:32.873Z,26.72
2022-12-06T01:56:32.865Z,26.81
2022-12-06T01:57:32.875Z,26.73
2022-12-06T01:58:32.865Z,26.72
2022-12-06T01:59:32.873Z,26.72
2022-12-06T02:00:32.864Z,26.63
2022-12-06T02:01:32.989Z,26.80
2022-12-06T02:02:32.932Z,26.70
2022-12-06T02:03:32.871Z,26.75
2022-12-06T02:04:32.862Z,26.69
2022-12-06T02:05:37.511Z,26.80
2022-12-06T02:06:32.869Z,26.73
2022-12-06T02:07:32.922Z,26.75
2022-12-06T02:08:32.863Z,26.75
2022-12-06T02:09:32.869Z,26.75
2022-12-06T02:10:32.910Z,26.72
2022-12-06T02:11:35.455Z,26.72
2022-12-06T02:12:32.864Z,26.73
2022-12-06T02:13:32.870Z,26.80
2022-12-06T02:14:32.861Z,26.80
2022-12-06T02:15:32.874Z,26.70
2022-12-06T02:16:32.909Z,26.72
2022-12-06T02:17:32.866Z,26.76
2022-12-06T02:18:32.860Z,26.70
2022-12-06T02:19:32.865Z,26.70
2022-12-06T02:20:32.860Z,26.70
2022-12-06T02:21:32.871Z,26.81
2022-12-06T02:22:32.858Z,26.72
2022-12-06T02:23:32.866Z,26.72
2022-12-06T02:24:32.859Z,26.70
2022-12-06T02:25:34.161Z,26.72
2022-12-06T02:26:32.879Z,26.70
2022-12-06T02:27:32.863Z,26.70
2022-12-06T02:28:32.857Z,26.81
2022-12-06T02:29:32.866Z,26.73
2022-12-06T02:30:32.938Z,26.75
2022-12-06T02:31:32.861Z,26.73
2022-12-06T02:32:32.854Z,26.72
2022-12-06T02:33:33.011Z,26.70
2022-12-06T02:34:32.856Z,26.70
2022-12-06T02:35:32.860Z,26.72
2022-12-06T02:36:32.852Z,26.76
2022-12-06T02:37:32.861Z,26.72
2022-12-06T02:38:32.852Z,26.73
2022-12-06T02:39:32.861Z,26.82
2022-12-06T02:40:32.853Z,26.75
2022-12-06T02:41:32.859Z,26.72
2022-12-06T02:42:32.876Z,26.73
2022-12-06T02:43:32.858Z,26.75
2022-12-06T02:44:32.852Z,26.73
2022-12-06T02:45:32.859Z,26.72
2022-12-06T02:46:32.915Z,26.70
2022-12-06T02:47:32.857Z,26.70
2022-12-06T02:48:32.850Z,26.77
2022-12-06T02:49:32.857Z,26.76
2022-12-06T02:50:32.851Z,26.70
2022-12-06T02:51:32.856Z,26.70
2022-12-06T02:52:32.850Z,26.72
2022-12-06T02:53:32.858Z,26.73
2022-12-06T02:54:32.850Z,26.70
2022-12-06T02:55:32.856Z,26.72
2022-12-06T02:56:32.847Z,26.75
2022-12-06T02:57:32.856Z,26.73
2022-12-06T02:58:32.871Z,26.70
2022-12-06T02:59:32.853Z,26.80
2022-12-06T03:00:32.850Z,26.75
2022-12-06T03:01:32.957Z,26.73
2022-12-06T03:02:32.907Z,26.76
2022-12-06T03:03:32.854Z,26.72
2022-12-06T03:04:32.846Z,26.72
2022-12-06T03:05:32.855Z,26.75
2022-12-06T03:06:32.846Z,26.75
2022-12-06T03:07:32.935Z,26.73
2022-12-06T03:08:32.845Z,26.73
2022-12-06T03:09:32.851Z,26.69
2022-12-06T03:10:32.850Z,26.77
2022-12-06T03:11:32.844Z,26.65
2022-12-06T03:12:32.850Z,26.76
2022-12-06T03:13:32.846Z,26.77
2022-12-06T03:14:32.874Z,26.77
2022-12-06T03:15:32.884Z,26.73
2022-12-06T03:16:32.849Z,26.72
2022-12-06T03:17:32.841Z,26.72
2022-12-06T03:18:32.849Z,26.80
2022-12-06T03:19:32.841Z,26.73
2022-12-06T03:20:32.847Z,26.75
2022-12-06T03:21:32.842Z,26.80
2022-12-06T03:22:38.239Z,26.72
2022-12-06T03:23:32.839Z,26.75
2022-12-06T03:24:32.846Z,26.75
2022-12-06T03:25:32.839Z,26.77
2022-12-06T03:26:32.848Z,26.69
2022-12-06T03:27:32.839Z,26.70
2022-12-06T03:28:32.845Z,26.72
2022-12-06T03:29:32.839Z,26.69
2022-12-06T03:30:32.868Z,26.70
2022-12-06T03:31:32.927Z,26.76
2022-12-06T03:32:32.844Z,26.82
2022-12-06T03:33:32.987Z,26.69
2022-12-06T03:34:32.848Z,26.70
2022-12-06T03:35:32.835Z,26.73
2022-12-06T03:36:32.844Z,26.70
2022-12-06T03:37:32.836Z,26.70
2022-12-06T03:38:32.842Z,26.69
2022-12-06T03:39:32.835Z,26.72
2022-12-06T03:40:32.841Z,26.70
2022-12-06T03:41:32.834Z,26.75
2022-12-06T03:42:32.845Z,26.77
2022-12-06T03:43:32.837Z,26.72
2022-12-06T03:44:32.841Z,26.70
2022-12-06T03:45:32.872Z,26.70
2022-12-06T03:46:32.941Z,26.73
2022-12-06T03:47:32.832Z,26.76
2022-12-06T03:48:32.840Z,26.76
2022-12-06T03:49:32.832Z,26.73
2022-12-06T03:50:32.839Z,26.76
2022-12-06T03:51:32.830Z,26.72
2022-12-06T03:52:32.839Z,26.67
2022-12-06T03:53:32.830Z,26.69
2022-12-06T03:54:32.838Z,26.73
2022-12-06T03:55:32.830Z,26.73
2022-12-06T03:56:32.836Z,26.77
2022-12-06T03:57:32.832Z,26.72
2022-12-06T03:58:32.838Z,26.72
2022-12-06T03:59:32.829Z,26.72
2022-12-06T04:00:32.836Z,26.73
2022-12-06T04:01:32.901Z,26.75
2022-12-06T04:02:32.859Z,26.72
2022-12-06T04:03:32.854Z,26.72
2022-12-06T04:04:32.836Z,26.69
2022-12-06T04:05:32.827Z,26.75
2022-12-06T04:06:32.835Z,26.73
2022-12-06T04:07:32.969Z,26.73
2022-12-06T04:08:32.834Z,26.72
2022-12-06T04:09:32.826Z,26.69
2022-12-06T04:10:32.834Z,26.76
2022-12-06T04:11:32.825Z,26.67
2022-12-06T04:12:32.832Z,26.73
2022-12-06T04:13:32.832Z,26.70
2022-12-06T04:14:32.834Z,26.76
2022-12-06T04:15:32.823Z,26.73
2022-12-06T04:16:32.947Z,26.75
2022-12-06T04:17:32.826Z,26.72
2022-12-06T04:18:32.852Z,26.73
2022-12-06T04:19:32.823Z,26.73
2022-12-06T04:20:32.829Z,26.80
2022-12-06T04:21:32.823Z,26.69
2022-12-06T04:22:32.831Z,26.70
2022-12-06T04:23:32.824Z,26.72
2022-12-06T04:24:32.829Z,26.75
2022-12-06T04:25:32.822Z,26.70
2022-12-06T04:26:32.828Z,26.76
2022-12-06T04:27:32.820Z,26.73
2022-12-06T04:28:32.830Z,26.69
2022-12-06T04:29:32.822Z,26.73
2022-12-06T04:30:32.828Z,26.75
2022-12-06T04:31:32.880Z,26.75
2022-12-06T04:32:32.826Z,26.73
2022-12-06T04:33:32.819Z,26.80
2022-12-06T04:34:32.851Z,26.63
2022-12-06T04:35:32.818Z,26.70
2022-12-06T04:36:32.825Z,26.70
2022-12-06T04:37:32.818Z,26.73
2022-12-06T04:38:32.826Z,26.76
2022-12-06T04:39:32.819Z,26.73
2022-12-06T04:40:32.824Z,26.70
2022-12-06T04:41:32.817Z,26.75
2022-12-06T04:42:32.824Z,26.72
2022-12-06T04:43:32.814Z,26.77
2022-12-06T04:44:32.822Z,26.73
2022-12-06T04:45:32.816Z,26.76
2022-12-06T04:46:32.885Z,26.62
2022-12-06T04:47:32.813Z,26.72
2022-12-06T04:48:32.821Z,26.73
2022-12-06T04:49:32.813Z,26.73
2022-12-06T04:50:32.844Z,26.75
2022-12-06T04:51:32.815Z,26.72
2022-12-06T04:52:35.942Z,26.70
2022-12-06T04:53:32.813Z,26.73
2022-12-06T04:54:32.821Z,26.70
2022-12-06T04:55:32.812Z,26.73
2022-12-06T04:56:32.819Z,26.70
2022-12-06T04:57:32.811Z,26.70
2022-12-06T04:58:32.818Z,26.70
2022-12-06T04:59:32.811Z,26.72
2022-12-06T05:00:32.856Z,26.72
2022-12-06T05:01:32.810Z,26.72
2022-12-06T05:02:32.818Z,26.72
2022-12-06T05:03:32.866Z,26.72
2022-12-06T05:04:32.815Z,26.72
2022-12-06T05:05:32.811Z,26.72
2022-12-06T05:06:32.837Z,26.69
2022-12-06T05:07:32.869Z,26.72
2022-12-06T05:08:32.813Z,26.70
2022-12-06T05:09:32.807Z,26.76
2022-12-06T05:10:32.814Z,26.72
2022-12-06T05:11:32.809Z,26.75
2022-12-06T05:12:32.814Z,26.75
2022-12-06T05:13:32.805Z,26.70
2022-12-06T05:14:32.813Z,26.77
2022-12-06T05:15:32.804Z,26.69
2022-12-06T05:16:32.880Z,26.69
2022-12-06T05:17:32.807Z,26.73
2022-12-06T05:18:32.812Z,26.70
2022-12-06T05:19:32.805Z,26.72
2022-12-06T05:20:32.811Z,26.73
2022-12-06T05:21:32.805Z,26.69
2022-12-06T05:22:32.834Z,26.70
2022-12-06T05:23:32.803Z,26.69
2022-12-06T05:24:32.809Z,26.80
2022-12-06T05:25:32.803Z,26.77
2022-12-06T05:26:32.811Z,26.67
2022-12-06T05:27:35.963Z,26.72
2022-12-06T05:28:32.809Z,26.70
2022-12-06T05:29:32.804Z,26.72
2022-12-06T05:30:32.809Z,26.72
2022-12-06T05:31:32.886Z,26.69
2022-12-06T05:32:32.809Z,26.73
2022-12-06T05:33:32.802Z,26.70
2022-12-06T05:34:32.811Z,26.69
2022-12-06T05:35:32.798Z,26.72
2022-12-06T05:36:32.806Z,26.76
2022-12-06T05:37:32.800Z,26.75
2022-12-06T05:38:32.828Z,26.75
2022-12-06T05:39:32.797Z,26.73
2022-12-06T05:40:32.807Z,26.75
2022-12-06T05:41:32.801Z,26.70
2022-12-06T05:42:32.806Z,26.72
2022-12-06T05:43:32.797Z,26.70
2022-12-06T05:44:32.804Z,26.73
2022-12-06T05:45:32.833Z,26.72
2022-12-06T05:46:32.804Z,26.69
2022-12-06T05:47:32.798Z,26.69
2022-12-06T05:48:32.805Z,26.76
2022-12-06T05:49:32.800Z,26.76
2022-12-06T05:50:32.803Z,26.72
2022-12-06T05:51:32.794Z,26.75
2022-12-06T05:52:32.802Z,26.72
2022-12-06T05:53:32.795Z,26.69
2022-12-06T05:54:32.826Z,26.80
2022-12-06T05:55:32.794Z,26.69
2022-12-06T05:56:32.800Z,26.72
2022-12-06T05:57:32.793Z,26.80
2022-12-06T05:58:32.800Z,26.70
2022-12-06T05:59:32.793Z,26.73
2022-12-06T06:00:32.803Z,26.76
2022-12-06T06:01:32.792Z,26.69
2022-12-06T06:02:32.984Z,26.70
2022-12-06T06:03:32.903Z,26.69
2022-12-06T06:04:32.800Z,26.70
2022-12-06T06:05:32.792Z,26.73
2022-12-06T06:06:32.801Z,26.72
2022-12-06T06:07:32.852Z,26.70
2022-12-06T06:08:32.797Z,26.73
2022-12-06T06:09:32.789Z,26.75
2022-12-06T06:10:32.817Z,26.75
2022-12-06T06:11:32.788Z,26.72
2022-12-06T06:12:32.799Z,26.65
2022-12-06T06:13:32.788Z,26.81
2022-12-06T06:14:32.796Z,26.70
2022-12-06T06:15:32.787Z,26.80
2022-12-06T06:16:32.937Z,26.77
2022-12-06T06:17:32.787Z,26.75
2022-12-06T06:18:32.795Z,26.72
2022-12-06T06:19:32.785Z,26.81
2022-12-06T06:20:32.795Z,26.72
2022-12-06T06:21:32.786Z,26.87
2022-12-06T06:22:32.794Z,26.77
2022-12-06T06:23:32.797Z,26.81
2022-12-06T06:24:32.795Z,26.88
2022-12-06T06:25:32.785Z,26.82
2022-12-06T06:26:32.815Z,26.91
2022-12-06T06:27:32.783Z,26.92
2022-12-06T06:28:32.841Z,26.95
2022-12-06T06:29:32.784Z,26.97
2022-12-06T06:30:32.886Z,26.94
2022-12-06T06:31:32.852Z,26.94
2022-12-06T06:32:32.792Z,26.97
2022-12-06T06:33:32.783Z,26.97
2022-12-06T06:34:32.792Z,26.92
2022-12-06T06:35:32.783Z,26.99
2022-12-06T06:36:32.790Z,26.99
2022-12-06T06:37:32.782Z,26.94
2022-12-06T06:38:32.790Z,26.92
2022-12-06T06:39:32.781Z,26.95
2022-12-06T06:40:32.790Z,27.07
2022-12-06T06:41:32.781Z,27.09
2022-12-06T06:42:32.810Z,27.07
2022-12-06T06:43:32.780Z,27.06
2022-12-06T06:44:32.789Z,27.10
2022-12-06T06:45:32.839Z,27.12
2022-12-06T06:46:32.881Z,27.12
2022-12-06T06:47:32.783Z,27.03
2022-12-06T06:48:32.787Z,27.17
2022-12-06T06:49:32.780Z,27.10
2022-12-06T06:50:32.789Z,27.07
2022-12-06T06:51:32.781Z,27.13
2022-12-06T06:52:32.788Z,27.14
2022-12-06T06:53:32.780Z,27.10
2022-12-06T06:54:32.786Z,27.17
2022-12-06T06:55:32.782Z,27.12
2022-12-06T06:56:32.787Z,27.10
2022-12-06T06:57:32.780Z,27.17
2022-12-06T06:58:32.812Z,27.18
2022-12-06T06:59:32.778Z,27.13
2022-12-06T07:00:32.786Z,27.19
2022-12-06T07:01:32.911Z,27.18
2022-12-06T07:02:32.822Z,27.22
2022-12-06T07:03:32.780Z,27.19
2022-12-06T07:04:32.786Z,27.31
2022-12-06T07:05:32.778Z,27.19
2022-12-06T07:06:32.788Z,27.24
2022-12-06T07:07:32.829Z,27.24
2022-12-06T07:08:32.785Z,27.22
2022-12-06T07:09:32.778Z,27.24
2022-12-06T07:10:32.787Z,27.27
2022-12-06T07:11:32.779Z,27.29
2022-12-06T07:12:32.787Z,27.28
2022-12-06T07:13:32.791Z,27.28
2022-12-06T07:14:32.812Z,27.22
2022-12-06T07:15:32.784Z,27.36
2022-12-06T07:16:32.951Z,27.31
2022-12-06T07:17:32.779Z,27.39
2022-12-06T07:18:32.788Z,27.31
2022-12-06T07:19:32.779Z,27.31
2022-12-06T07:20:32.806Z,27.39
2022-12-06T07:21:32.779Z,27.39
2022-12-06T07:22:32.787Z,27.28
2022-12-06T07:23:32.778Z,27.29
2022-12-06T07:24:36.946Z,27.29
2022-12-06T07:25:32.781Z,27.32
2022-12-06T07:26:32.779Z,27.41
2022-12-06T07:27:32.786Z,27.27
2022-12-06T07:28:32.780Z,27.46
2022-12-06T07:29:32.787Z,27.44
2022-12-06T07:30:32.956Z,27.44
2022-12-06T07:31:32.836Z,27.41
2022-12-06T07:32:32.779Z,27.39
2022-12-06T07:33:32.790Z,27.40
2022-12-06T07:34:32.782Z,27.46
2022-12-06T07:36:03.460Z,27.44
2022-12-06T07:36:32.787Z,27.39
2022-12-06T07:37:32.788Z,27.47
2022-12-06T07:38:32.783Z,27.43
2022-12-06T07:39:32.788Z,27.44
2022-12-06T07:41:02.876Z,27.43
2022-12-06T07:41:32.788Z,27.49
2022-12-06T07:42:32.781Z,27.57
2022-12-06T07:43:32.787Z,27.44
2022-12-06T07:44:32.782Z,27.51
2022-12-06T07:45:32.794Z,27.51
2022-12-06T07:46:32.900Z,27.50
2022-12-06T07:47:32.788Z,27.59
2022-12-06T07:48:32.781Z,27.57
2022-12-06T07:49:32.789Z,27.57
2022-12-06T07:50:32.784Z,27.55
2022-12-06T07:51:32.789Z,27.57
2022-12-06T07:52:32.795Z,27.49
2022-12-06T07:53:32.790Z,27.50
2022-12-06T07:54:32.785Z,27.50
2022-12-06T07:55:32.793Z,27.54
2022-12-06T07:56:32.784Z,27.66
2022-12-06T07:57:32.793Z,27.54
2022-12-06T07:58:32.785Z,27.66
2022-12-06T07:59:32.791Z,27.57
2022-12-06T08:00:32.786Z,27.59
2022-12-06T08:01:32.857Z,27.59
2022-12-06T08:02:32.810Z,27.62
2022-12-06T08:03:32.795Z,27.66
2022-12-06T08:04:32.865Z,27.62
2022-12-06T08:05:32.794Z,27.63
2022-12-06T08:06:32.789Z,27.65
2022-12-06T08:07:32.836Z,27.62
2022-12-06T08:08:32.896Z,27.70
2022-12-06T08:09:32.794Z,27.62
2022-12-06T08:10:32.789Z,27.66
2022-12-06T08:11:32.808Z,27.62
2022-12-06T08:12:32.788Z,27.65
2022-12-06T08:13:32.795Z,27.70
2022-12-06T08:14:32.788Z,27.72
2022-12-06T08:15:32.872Z,27.67
2022-12-06T08:16:32.920Z,27.70
2022-12-06T08:17:32.796Z,27.65
2022-12-06T08:18:32.810Z,27.69
2022-12-06T08:19:32.796Z,27.66
2022-12-06T08:20:32.790Z,27.69
2022-12-06T08:21:32.799Z,27.77
2022-12-06T08:22:32.790Z,27.70
2022-12-06T08:23:34.610Z,27.72
2022-12-06T08:24:32.791Z,27.70
2022-12-06T08:25:32.797Z,27.70
2022-12-06T08:26:32.792Z,27.70
2022-12-06T08:27:32.799Z,27.81
2022-12-06T08:28:32.792Z,27.78
2022-12-06T08:29:32.800Z,27.79
2022-12-06T08:30:32.906Z,27.78
2022-12-06T08:31:32.863Z,27.78
2022-12-06T08:32:32.796Z,27.84
2022-12-06T08:33:32.800Z,27.81
2022-12-06T08:34:32.815Z,27.77
2022-12-06T08:35:32.801Z,27.82
2022-12-06T08:36:32.794Z,27.81
2022-12-06T08:37:32.803Z,27.75
2022-12-06T08:38:32.813Z,27.77
2022-12-06T08:39:32.805Z,27.82
2022-12-06T08:40:32.796Z,27.70
2022-12-06T08:41:32.805Z,27.81
2022-12-06T08:42:32.796Z,27.77
2022-12-06T08:43:32.804Z,27.70
2022-12-06T08:44:32.796Z,27.75
2022-12-06T08:45:32.806Z,27.75
2022-12-06T08:46:32.958Z,27.67
2022-12-06T08:47:32.808Z,27.74
2022-12-06T08:48:32.799Z,27.78
2022-12-06T08:49:32.807Z,27.77
2022-12-06T08:50:32.820Z,27.74
2022-12-06T08:51:32.806Z,27.79
2022-12-06T08:52:32.799Z,27.70
2022-12-06T08:53:32.810Z,27.84
2022-12-06T08:54:32.800Z,27.78
2022-12-06T08:55:32.811Z,27.77
2022-12-06T08:56:32.802Z,27.85
2022-12-06T08:57:32.813Z,27.85
2022-12-06T08:58:32.804Z,27.82
2022-12-06T08:59:32.808Z,27.90
2022-12-06T09:00:32.803Z,27.87
2022-12-06T09:01:37.681Z,27.88
2022-12-06T09:02:32.808Z,27.87
2022-12-06T09:03:32.810Z,27.82
2022-12-06T09:04:32.860Z,27.84
2022-12-06T09:05:32.811Z,27.94
2022-12-06T09:06:32.829Z,27.84
2022-12-06T09:07:32.858Z,27.93
2022-12-06T09:08:32.807Z,27.90
2022-12-06T09:09:32.813Z,27.93
2022-12-06T09:10:32.808Z,27.90
2022-12-06T09:11:32.813Z,27.84
2022-12-06T09:12:32.808Z,27.85
2022-12-06T09:13:32.816Z,27.87
2022-12-06T09:14:32.810Z,27.87
2022-12-06T09:15:32.864Z,27.85
2022-12-06T09:16:32.922Z,27.93
2022-12-06T09:17:32.815Z,27.88
2022-12-06T09:18:32.809Z,27.88
2022-12-06T09:19:32.818Z,27.93
2022-12-06T09:20:32.809Z,27.92
2022-12-06T09:21:32.818Z,27.87
2022-12-06T09:22:32.835Z,27.79
2022-12-06T09:23:32.818Z,27.87
2022-12-06T09:24:32.813Z,27.93
2022-12-06T09:25:32.821Z,27.88
2022-12-06T09:26:32.814Z,27.87
2022-12-06T09:27:32.820Z,27.84
2022-12-06T09:28:32.913Z,27.96
2022-12-06T09:29:37.372Z,27.88
2022-12-06T09:30:32.814Z,27.93
2022-12-06T09:31:32.919Z,27.90
2022-12-06T09:32:32.825Z,27.99
2022-12-06T09:33:32.821Z,27.96
2022-12-06T09:34:32.821Z,27.87
2022-12-06T09:35:32.823Z,27.85
2022-12-06T09:36:32.816Z,27.97
2022-12-06T09:37:32.826Z,27.94
2022-12-06T09:38:32.843Z,27.99
2022-12-06T09:39:32.824Z,27.97
2022-12-06T09:40:32.818Z,27.92
2022-12-06T09:41:32.825Z,27.93
2022-12-06T09:42:32.821Z,27.90
2022-12-06T09:43:32.830Z,27.84
2022-12-06T09:44:32.819Z,27.84
2022-12-06T09:45:32.827Z,27.94
2022-12-06T09:46:32.915Z,27.94
2022-12-06T09:47:32.835Z,27.96
2022-12-06T09:48:32.820Z,27.93
2022-12-06T09:49:32.833Z,27.93
2022-12-06T09:50:32.827Z,27.90
2022-12-06T09:51:32.830Z,27.96
2022-12-06T09:52:32.849Z,27.99
2022-12-06T09:53:32.831Z,27.90
2022-12-06T09:54:32.845Z,27.93
2022-12-06T09:55:32.833Z,27.92
2022-12-06T09:56:32.825Z,27.96
2022-12-06T09:57:32.831Z,27.92
2022-12-06T09:58:32.826Z,27.99
2022-12-06T09:59:32.835Z,27.99
2022-12-06T10:00:32.827Z,27.96
2022-12-06T10:01:32.887Z,27.85
2022-12-06T10:02:32.932Z,28.00
2022-12-06T10:03:32.837Z,27.87
2022-12-06T10:04:32.829Z,27.96
2022-12-06T10:05:32.837Z,27.97
2022-12-06T10:06:32.830Z,28.00
2022-12-06T10:07:32.876Z,27.97
2022-12-06T10:08:33.001Z,27.96
2022-12-06T10:09:32.843Z,28.00
2022-12-06T10:10:32.859Z,28.09
2022-12-06T10:11:32.842Z,28.06
2022-12-06T10:12:32.832Z,28.12
2022-12-06T10:13:32.840Z,28.04
2022-12-06T10:14:32.834Z,28.15
2022-12-06T10:15:32.844Z,28.17
2022-12-06T10:16:32.882Z,28.15
2022-12-06T10:17:32.842Z,28.02
2022-12-06T10:18:32.835Z,28.09
2022-12-06T10:19:32.845Z,28.15
2022-12-06T10:20:32.837Z,28.15
2022-12-06T10:21:32.844Z,28.15
2022-12-06T10:22:32.838Z,28.14
2022-12-06T10:23:32.845Z,28.18
2022-12-06T10:24:32.840Z,28.18
2022-12-06T10:25:32.849Z,28.22
2022-12-06T10:26:32.861Z,28.17
2022-12-06T10:27:32.863Z,28.15
2022-12-06T10:28:32.842Z,28.18
2022-12-06T10:29:32.849Z,28.09
2022-12-06T10:30:32.844Z,28.12
2022-12-06T10:31:32.900Z,28.18
2022-12-06T10:32:32.845Z,28.22
2022-12-06T10:33:32.851Z,28.22
2022-12-06T10:34:32.846Z,28.19
2022-12-06T10:35:32.853Z,28.24
2022-12-06T10:36:32.847Z,28.24
2022-12-06T10:37:32.853Z,28.21
2022-12-06T10:38:32.850Z,28.25
2022-12-06T10:39:32.855Z,28.34
2022-12-06T10:40:32.848Z,28.29
2022-12-06T10:41:32.857Z,28.31
2022-12-06T10:42:32.874Z,28.30
2022-12-06T10:43:32.857Z,28.29
2022-12-06T10:44:32.854Z,28.33
2022-12-06T10:45:32.858Z,28.30
2022-12-06T10:46:32.909Z,28.31
2022-12-06T10:47:32.862Z,28.34
2022-12-06T10:48:32.854Z,28.37
2022-12-06T10:49:32.861Z,28.39
2022-12-06T10:50:32.854Z,28.43
2022-12-06T10:51:32.864Z,28.40
2022-12-06T10:52:32.859Z,28.46
2022-12-06T10:53:32.864Z,28.40
2022-12-06T10:54:32.860Z,28.52
2022-12-06T10:55:32.865Z,28.48
2022-12-06T10:56:32.860Z,28.48
2022-12-06T10:57:32.868Z,28.46
2022-12-06T10:58:32.886Z,28.41
2022-12-06T10:59:32.874Z,28.52
2022-12-06T11:00:32.907Z,28.44
2022-12-06T11:01:33.138Z,28.41
2022-12-06T11:02:32.979Z,28.48
2022-12-06T11:03:32.871Z,28.49
2022-12-06T11:04:32.865Z,28.40
2022-12-06T11:05:32.873Z,28.49
2022-12-06T11:06:32.868Z,28.49
2022-12-06T11:07:32.926Z,28.49
2022-12-06T11:08:32.869Z,28.49
2022-12-06T11:09:32.875Z,28.48
2022-12-06T11:10:32.870Z,28.46
2022-12-06T11:11:32.877Z,28.48
2022-12-06T11:12:32.870Z,28.41
2022-12-06T11:13:32.881Z,28.49
2022-12-06T11:14:32.894Z,28.43
2022-12-06T11:15:32.880Z,28.43
2022-12-06T11:16:33.046Z,28.49
2022-12-06T11:17:32.884Z,28.37
2022-12-06T11:18:32.879Z,28.39
2022-12-06T11:19:32.883Z,28.40
2022-12-06T11:20:32.877Z,28.41
2022-12-06T11:21:32.890Z,28.41
2022-12-06T11:22:32.878Z,28.41
2022-12-06T11:23:32.890Z,28.48
2022-12-06T11:24:32.885Z,28.40
2022-12-06T11:25:32.894Z,28.37
2022-12-06T11:26:32.882Z,28.40
2022-12-06T11:27:32.892Z,28.34
2022-12-06T11:28:32.889Z,28.43
2022-12-06T11:29:32.894Z,28.43
2022-12-06T11:30:32.912Z,28.39
2022-12-06T11:31:33.000Z,28.41
2022-12-06T11:32:32.887Z,28.39
2022-12-06T11:33:32.903Z,28.43
2022-12-06T11:34:32.889Z,28.36
2022-12-06T11:35:32.897Z,28.33
2022-12-06T11:36:32.891Z,28.37
2022-12-06T11:37:32.898Z,28.30
2022-12-06T11:38:32.904Z,28.34
2022-12-06T11:39:32.899Z,28.41
2022-12-06T11:40:32.897Z,28.37
2022-12-06T11:41:32.908Z,28.39
2022-12-06T11:42:32.902Z,28.40
2022-12-06T11:43:32.893Z,28.39
2022-12-06T11:44:32.901Z,28.44
2022-12-06T11:45:32.897Z,28.34
2022-12-06T11:46:33.102Z,28.39
2022-12-06T11:47:32.896Z,28.41
2022-12-06T11:48:32.905Z,28.44
2022-12-06T11:49:32.899Z,28.40
2022-12-06T11:50:32.907Z,28.40
2022-12-06T11:51:32.905Z,28.34
2022-12-06T11:52:32.908Z,28.34
2022-12-06T11:53:32.903Z,28.36
2022-12-06T11:54:32.914Z,28.36
2022-12-06T11:55:32.903Z,28.39
2022-12-06T11:56:32.911Z,28.34
2022-12-06T11:57:32.904Z,28.39
2022-12-06T11:58:32.913Z,28.39
2022-12-06T11:59:32.906Z,28.29
2022-12-06T12:00:32.915Z,28.27
2022-12-06T12:01:32.907Z,28.33
2022-12-06T12:02:33.012Z,28.30
2022-12-06T12:03:32.949Z,28.33
2022-12-06T12:04:32.917Z,28.29
2022-12-06T12:05:32.910Z,28.34
2022-12-06T12:06:32.918Z,28.31
2022-12-06T12:07:32.994Z,28.31
2022-12-06T12:08:33.123Z,28.31
2022-12-06T12:09:32.913Z,28.31
2022-12-06T12:10:32.920Z,28.30
2022-12-06T12:11:32.915Z,28.31
2022-12-06T12:12:32.925Z,28.27
2022-12-06T12:13:32.915Z,28.30
2022-12-06T12:14:32.926Z,28.29
2022-12-06T12:15:32.916Z,28.22
2022-12-06T12:16:32.981Z,28.25
2022-12-06T12:17:32.918Z,28.24
2022-12-06T12:18:32.948Z,28.24
2022-12-06T12:19:32.920Z,28.21
2022-12-06T12:20:32.926Z,28.24
2022-12-06T12:21:32.929Z,28.19
2022-12-06T12:22:32.931Z,28.21
2022-12-06T12:23:32.928Z,28.19
2022-12-06T12:24:38.286Z,28.22
2022-12-06T12:25:32.923Z,28.24
2022-12-06T12:26:32.932Z,28.18
2022-12-06T12:27:32.925Z,28.19
2022-12-06T12:28:32.934Z,28.19
2022-12-06T12:29:32.926Z,28.21
2022-12-06T12:30:32.933Z,28.29
2022-12-06T12:31:32.975Z,28.27
2022-12-06T12:32:32.976Z,28.19
2022-12-06T12:33:32.928Z,28.22
2022-12-06T12:34:32.959Z,28.29
2022-12-06T12:35:32.930Z,28.18
2022-12-06T12:36:32.939Z,28.24
2022-12-06T12:37:32.934Z,28.18
2022-12-06T12:38:32.940Z,28.24
2022-12-06T12:39:32.937Z,28.21
2022-12-06T12:40:32.940Z,28.24
2022-12-06T12:41:32.935Z,28.18
2022-12-06T12:42:32.994Z,28.22
2022-12-06T12:43:32.935Z,28.17
2022-12-06T12:44:38.168Z,28.14
2022-12-06T12:45:32.977Z,28.22
2022-12-06T12:46:32.992Z,28.18
2022-12-06T12:47:32.945Z,28.19
2022-12-06T12:48:32.951Z,28.21
2022-12-06T12:49:32.943Z,28.19
2022-12-06T12:50:32.975Z,28.19
2022-12-06T12:51:32.942Z,28.18
2022-12-06T12:52:32.951Z,28.18